Time;durP1;ratioP1;P1;durP2;ratioP2;P2;SDS_P1;SDS_P2;PMS_P1;PMS_P2;Temp;Humidity;BMP_temperature;BMP_pressure;BME280_temperature;BME280_humidity;BME280_pressure;Samples;Min_cycle;Max_cycle;Signal;HPM_P1;HPM_P2
2022/06/26 00:02:01;;;;;;;11.50;6.72;;;;;;;;;;5057210;28;20050;-78
2022/06/26 00:04:27;;;;;;;14.35;6.97;;;;;;;;;;5057788;28;20478;-79
2022/06/26 00:06:55;;;;;;;10.05;6.80;;;;;;;;;;5075406;28;20407;-79
2022/06/26 00:09:21;;;;;;;11.40;6.70;;;;;;;;;;5075290;28;20063;-79
2022/06/26 00:11:47;;;;;;;13.07;7.05;;;;;;;;;;5074978;28;20491;-79
2022/06/26 00:14:13;;;;;;;10.23;6.60;;;;;;;;;;5057181;28;20088;-79
2022/06/26 00:16:39;;;;;;;9.82;6.95;;;;;;;;;;5075163;28;20056;-78
2022/06/26 00:19:06;;;;;;;12.52;8.10;;;;;;;;;;5057090;28;20052;-78
2022/06/26 00:21:32;;;;;;;15.68;9.05;;;;;;;;;;5057091;28;20138;-79
2022/06/26 00:24:00;;;;;;;14.25;8.88;;;;;;;;;;5057459;28;20071;-79
2022/06/26 00:26:26;;;;;;;11.98;8.80;;;;;;;;;;5074917;28;20059;-79
2022/06/26 00:28:53;;;;;;;14.38;9.25;;;19.80;99.90;;;;;;5057240;28;20052;-78
2022/06/26 00:31:18;;;;;;;14.00;9.05;;;19.40;99.90;;;;;;5073984;28;20060;-78
2022/06/26 00:33:47;;;;;;;13.88;9.63;;;19.50;99.90;;;;;;5056736;28;20049;-79
2022/06/26 00:36:13;;;;;;;11.73;8.63;;;;;;;;;;5056865;28;20049;-79
2022/06/26 00:38:38;;;;;;;13.15;8.68;;;19.20;99.90;;;;;;5057065;28;20084;-78
2022/06/26 00:41:05;;;;;;;12.00;8.48;;;19.30;99.90;;;;;;5056645;28;20506;-79
2022/06/26 00:43:34;;;;;;;11.43;8.18;;;;;;;;;;5056743;28;20565;-79
2022/06/26 00:46:00;;;;;;;10.25;8.52;;;;;;;;;;5057025;28;20063;-80
2022/06/26 00:48:26;;;;;;;13.93;9.55;;;;;;;;;;5075082;28;20063;-80
2022/06/26 00:50:52;;;;;;;14.32;9.30;;;;;;;;;;5074804;28;20075;-79
2022/06/26 00:53:19;;;;;;;12.80;9.60;;;19.30;99.90;;;;;;5040027;28;20051;-79
2022/06/26 00:55:45;;;;;;;14.05;9.50;;;;;;;;;;5074749;28;20080;-79
2022/06/26 00:58:11;;;;;;;14.60;9.43;;;;;;;;;;5056719;28;20135;-79
2022/06/26 01:00:37;;;;;;;12.65;9.65;;;19.10;99.90;;;;;;5072164;22;20040;-65
2022/06/26 01:03:03;;;;;;;11.73;9.60;;;18.80;99.90;;;;;;5093914;28;20106;-65
2022/06/26 01:05:30;;;;;;;10.23;9.13;;;20.00;99.90;;;;;;5094171;28;20044;-65
2022/06/26 01:07:56;;;;;;;10.32;8.50;;;19.00;99.90;;;;;;5094302;28;20391;-68
2022/06/26 01:10:22;;;;;;;11.57;9.15;;;19.60;99.90;;;;;;5094356;28;20046;-69
2022/06/26 01:12:48;;;;;;;11.38;9.07;;;19.30;99.90;;;;;;5094140;28;20052;-68
2022/06/26 01:15:14;;;;;;;11.38;8.93;;;18.90;99.90;;;;;;5075903;28;20051;-69
2022/06/26 01:17:40;;;;;;;11.60;9.40;;;19.10;99.90;;;;;;5094060;28;20517;-68
2022/06/26 01:20:07;;;;;;;10.65;9.45;;;19.00;99.90;;;;;;5094191;28;20044;-68
2022/06/26 01:22:32;;;;;;;14.18;9.52;;;19.30;99.90;;;;;;5093444;28;20135;-68
2022/06/26 01:24:58;;;;;;;16.48;8.95;;;19.40;99.90;;;;;;5093933;28;20123;-68
2022/06/26 01:27:24;;;;;;;11.70;9.70;;;19.20;99.90;;;;;;5075487;28;20473;-68
2022/06/26 01:29:50;;;;;;;15.55;9.35;;;19.20;99.90;;;;;;5093985;28;20040;-68
2022/06/26 01:32:16;;;;;;;14.05;10.30;;;;;;;;;;5093466;28;20048;-68
2022/06/26 01:34:41;;;;;;;14.65;11.23;;;18.90;99.90;;;;;;5093686;28;20247;-68
2022/06/26 01:37:07;;;;;;;13.02;11.10;;;18.80;99.90;;;;;;5093623;28;20059;-69
2022/06/26 01:39:33;;;;;;;13.10;10.40;;;19.20;99.90;;;;;;5093871;28;20048;-69
2022/06/26 01:41:58;;;;;;;14.13;10.10;;;19.30;99.90;;;;;;5075444;28;20059;-65
2022/06/26 01:44:25;;;;;;;17.70;10.45;;;19.00;99.90;;;;;;5075504;28;20055;-66
2022/06/26 01:46:50;;;;;;;13.27;10.18;;;19.20;99.90;;;;;;5093539;28;20094;-66
2022/06/26 01:49:16;;;;;;;17.48;10.20;;;19.20;99.90;;;;;;5093509;28;20505;-66
2022/06/26 01:51:42;;;;;;;16.13;10.82;;;18.60;99.90;;;;;;5093407;28;20051;-66
2022/06/26 01:54:08;;;;;;;15.52;11.45;;;19.20;99.90;;;;;;5093087;28;20048;-65
2022/06/26 01:56:34;;;;;;;25.63;11.93;;;19.90;99.90;;;;;;5093286;28;20040;-65
2022/06/26 01:59:00;;;;;;;16.00;11.77;;;19.40;99.90;;;;;;5074944;28;20059;-65
2022/06/26 02:01:26;;;;;;;17.50;11.80;;;;;;;;;;5092572;28;20040;-65
2022/06/26 02:03:52;;;;;;;17.42;13.07;;;19.20;99.90;;;;;;5092557;28;20059;-65
2022/06/26 02:06:17;;;;;;;32.72;16.40;;;19.00;99.90;;;;;;5092896;28;20036;-65
2022/06/26 02:08:43;;;;;;;30.42;16.70;;;18.70;99.90;;;;;;5092956;28;20048;-65
2022/06/26 02:13:54;;;;;;;24.85;17.05;;;18.80;99.90;;;;;;5093100;28;20108;-66
2022/06/26 02:16:24;;;;;;;28.40;17.63;;;18.60;99.90;;;;;;5092981;28;20401;-64
2022/06/26 02:18:52;;;;;;;22.27;17.08;;;19.00;99.90;;;;;;5074525;28;20127;-63
2022/06/26 02:21:25;;;;;;;23.83;16.73;;;19.20;99.90;;;;;;5093035;28;20376;-63
2022/06/26 02:23:52;;;;;;;23.33;16.92;;;19.00;99.90;;;;;;5092438;28;20495;-63
2022/06/26 02:26:18;;;;;;;26.88;18.27;;;19.00;99.90;;;;;;5092748;28;20054;-63
2022/06/26 02:28:45;;;;;;;25.05;17.98;;;;;;;;;;5093048;28;20047;-63
2022/06/26 02:31:11;;;;;;;24.00;18.38;;;18.30;99.90;;;;;;5074340;28;20549;-63
2022/06/26 02:33:38;;;;;;;23.92;19.40;;;;;;;;;;5092654;28;20080;-63
2022/06/26 02:36:05;;;;;;;21.20;18.20;;;18.80;99.90;;;;;;5074205;28;20058;-63
2022/06/26 02:38:31;;;;;;;23.27;17.77;;;18.80;99.90;;;;;;5092334;28;20044;-63
2022/06/26 02:40:57;;;;;;;27.65;20.10;;;21.10;99.90;;;;;;5092476;28;20044;-64
2022/06/26 02:43:23;;;;;;;25.65;18.65;;;18.30;99.90;;;;;;5092481;28;20506;-65
2022/06/26 02:45:52;;;;;;;31.02;20.05;;;18.50;99.90;;;;;;5074403;28;20040;-64
2022/06/26 02:48:19;;;;;;;24.65;19.10;;;19.10;99.90;;;;;;5092398;28;20047;-64
2022/06/26 02:50:46;;;;;;;24.60;20.10;;;18.30;99.90;;;;;;5072821;28;20115;-64
2022/06/26 02:53:13;;;;;;;24.27;19.02;;;18.80;99.90;;;;;;5092114;28;20093;-64
2022/06/26 02:55:39;;;;;;;24.80;19.75;;;18.30;99.90;;;;;;5092283;28;20559;-64
2022/06/26 02:58:05;;;;;;;23.15;18.90;;;18.60;99.90;;;;;;5092173;28;20123;-68
2022/06/26 03:00:32;;;;;;;27.45;18.77;;;18.70;99.90;;;;;;5092027;28;20051;-68
2022/06/26 03:03:01;;;;;;;22.17;17.92;;;18.50;99.90;;;;;;5091946;28;20044;-68
2022/06/26 03:05:26;;;;;;;25.52;19.58;;;18.50;99.90;;;;;;5092161;28;20048;-67
2022/06/26 03:07:52;;;;;;;23.00;17.15;;;18.50;99.90;;;;;;5074035;28;20055;-68
2022/06/26 03:10:18;;;;;;;24.98;17.08;;;18.70;99.90;;;;;;5092050;28;20134;-68
2022/06/26 03:12:47;;;;;;;24.85;17.80;;;18.50;99.90;;;;;;5091925;28;20051;-68
2022/06/26 03:15:14;;;;;;;24.08;17.13;;;18.50;99.90;;;;;;5091453;28;20040;-68
2022/06/26 03:17:40;;;;;;;22.17;15.32;;;18.40;99.90;;;;;;5091123;28;20036;-68
2022/06/26 03:20:11;;;;;;;21.48;13.60;;;18.10;99.90;;;;;;5091797;28;20051;-69
2022/06/26 03:22:37;;;;;;;21.05;13.95;;;18.40;99.90;;;;;;5091899;28;20044;-69
2022/06/26 03:25:05;;;;;;;17.73;13.13;;;18.20;99.90;;;;;;5092010;28;20368;-69
2022/06/26 03:27:31;;;;;;;17.50;12.32;;;18.00;99.90;;;;;;5091731;28;20094;-69
2022/06/26 03:29:56;;;;;;;17.10;12.23;;;18.30;99.90;;;;;;5091775;28;20417;-69
2022/06/26 03:32:24;;;;;;;15.48;12.07;;;17.80;99.90;;;;;;5091642;28;20062;-69
2022/06/26 03:34:49;;;;;;;16.95;11.88;;;18.30;99.90;;;;;;5092011;28;20044;-69
2022/06/26 03:37:15;;;;;;;16.67;11.60;;;18.10;99.90;;;;;;5091737;28;20105;-68
2022/06/26 03:39:41;;;;;;;18.17;12.65;;;17.80;99.90;;;;;;5091672;28;20063;-65
2022/06/26 03:42:07;;;;;;;16.83;11.82;;;17.90;99.90;;;;;;5091876;28;20531;-65
2022/06/26 03:44:32;;;;;;;16.40;10.68;;;18.00;99.90;;;;;;5091863;28;20329;-65
2022/06/26 03:46:58;;;;;;;18.67;11.30;;;18.60;99.90;;;;;;5073317;28;20475;-65
2022/06/26 03:49:25;;;;;;;15.55;11.02;;;;;;;;;;5091277;28;20563;-65
2022/06/26 03:51:51;;;;;;;13.15;10.10;;;17.90;99.90;;;;;;5091559;28;20040;-65
2022/06/26 03:54:18;;;;;;;14.68;10.90;;;17.60;99.90;;;;;;5092033;28;20052;-64
2022/06/26 03:56:43;;;;;;;14.32;10.45;;;17.80;99.90;;;;;;5091574;28;20059;-64
2022/06/26 03:59:09;;;;;;;16.48;9.85;;;17.70;99.90;;;;;;5091533;28;20052;-68
2022/06/26 04:01:35;;;;;;;13.93;9.65;;;18.30;99.90;;;;;;5091234;28;20082;-68
2022/06/26 04:04:01;;;;;;;17.35;10.27;;;17.80;99.90;;;;;;5091252;28;20402;-69
2022/06/26 04:06:27;;;;;;;16.75;9.98;;;17.70;99.90;;;;;;5091204;28;20120;-69
2022/06/26 04:08:52;;;;;;;17.42;9.30;;;17.80;99.90;;;;;;5091419;28;20055;-69
2022/06/26 04:11:18;;;;;;;11.95;9.00;;;17.50;99.90;;;;;;5091090;28;20433;-69
2022/06/26 04:13:44;;;;;;;13.35;10.05;;;18.10;99.90;;;;;;5073429;28;20082;-69
2022/06/26 04:16:10;;;;;;;13.38;9.65;;;18.20;99.90;;;;;;5091131;28;20047;-68
2022/06/26 04:18:36;;;;;;;13.88;9.60;;;;;;;;;;5091074;28;20056;-69
2022/06/26 04:21:01;;;;;;;11.93;9.10;;;17.90;99.90;;;;;;5091099;28;20055;-68
2022/06/26 04:23:27;;;;;;;13.27;8.63;;;18.00;99.90;;;;;;5091005;28;20044;-69
2022/06/26 04:25:53;;;;;;;17.35;9.43;;;;;;;;;;5091419;28;20044;-69
2022/06/26 04:28:19;;;;;;;11.63;8.50;;;17.90;99.90;;;;;;5093019;28;20082;-69
2022/06/26 04:30:45;;;;;;;13.65;7.70;;;18.00;99.90;;;;;;5116761;22;20091;-56
2022/06/26 04:33:11;;;;;;;10.77;7.75;;;18.10;99.90;;;;;;5093372;28;20122;-57
2022/06/26 04:35:37;;;;;;;11.50;7.00;;;18.20;99.90;;;;;;5093816;28;20043;-56
2022/06/26 04:38:03;;;;;;;10.20;6.47;;;18.10;99.90;;;;;;5074538;28;20505;-56
2022/06/26 04:40:29;;;;;;;10.13;7.13;;;17.40;99.90;;;;;;5093603;28;20395;-56
2022/06/26 04:42:55;;;;;;;10.95;7.15;;;18.90;99.90;;;;;;5092777;28;20052;-56
2022/06/26 04:45:21;;;;;;;12.32;7.63;;;19.10;99.90;;;;;;5093415;28;20391;-56
2022/06/26 04:47:47;;;;;;;12.07;6.75;;;18.40;99.90;;;;;;5092775;28;20058;-56
2022/06/26 04:50:13;;;;;;;8.07;6.00;;;19.30;99.90;;;;;;5093056;28;20044;-56
2022/06/26 04:52:46;;;;;;;8.43;6.00;;;19.50;99.90;;;;;;5092380;28;20105;-56
2022/06/26 04:55:12;;;;;;;6.53;5.13;;;19.40;99.90;;;;;;5075550;28;20090;-56
2022/06/26 04:57:38;;;;;;;9.27;6.30;;;19.40;99.90;;;;;;5092979;28;20499;-56
2022/06/26 05:00:08;;;;;;;9.27;6.10;;;19.20;99.90;;;;;;5092642;28;20126;-56
2022/06/26 05:02:36;;;;;;;9.88;6.00;;;19.10;99.90;;;;;;5092679;28;20055;-57
2022/06/26 05:05:02;;;;;;;8.10;6.55;;;19.00;99.90;;;;;;5092774;28;20040;-56
2022/06/26 05:07:28;;;;;;;11.75;6.65;;;18.90;99.90;;;;;;5092818;28;20056;-56
2022/06/26 05:09:53;;;;;;;11.05;6.30;;;18.80;99.90;;;;;;5092588;28;20040;-56
2022/06/26 05:12:19;;;;;;;8.75;6.00;;;18.90;99.90;;;;;;5074126;28;20060;-55
2022/06/26 05:14:45;;;;;;;10.27;6.28;;;19.00;99.90;;;;;;5092274;28;20039;-55
2022/06/26 05:17:10;;;;;;;9.93;5.85;;;19.00;99.90;;;;;;5092853;28;20048;-56
2022/06/26 05:19:36;;;;;;;6.80;5.38;;;18.40;99.90;;;;;;5092819;28;20514;-56
2022/06/26 05:22:02;;;;;;;7.10;5.13;;;19.10;99.90;;;;;;5091732;28;20059;-56
2022/06/26 05:24:29;;;;;;;5.80;4.13;;;19.40;99.90;;;;;;5092485;28;20105;-56
2022/06/26 05:26:57;;;;;;;6.20;4.38;;;20.10;99.90;;;;;;5092099;28;20051;-56
2022/06/26 05:29:23;;;;;;;4.60;3.92;;;21.30;99.90;;;;;;5092633;28;20059;-56
2022/06/26 05:31:49;;;;;;;5.22;3.80;;;22.50;99.90;;;;;;5089186;28;20052;-56
2022/06/26 05:34:15;;;;;;;4.72;3.40;;;23.70;99.90;;;;;;5092231;28;20044;-56
2022/06/26 05:36:41;;;;;;;6.05;3.67;;;24.60;99.90;;;;;;5092083;28;20113;-57
2022/06/26 05:39:07;;;;;;;4.22;3.42;;;24.70;99.90;;;;;;5091253;28;20048;-56
2022/06/26 05:41:33;;;;;;;6.28;3.60;;;24.30;99.90;;;;;;5092083;28;20044;-56
2022/06/26 05:43:58;;;;;;;6.78;3.80;;;23.30;99.90;;;;;;5091642;28;20507;-56
2022/06/26 05:46:24;;;;;;;5.55;3.90;;;22.40;99.90;;;;;;5092100;28;20042;-56
2022/06/26 05:48:50;;;;;;;5.32;4.63;;;22.40;99.90;;;;;;5091512;28;20047;-56
2022/06/26 05:51:15;;;;;;;7.72;5.45;;;21.90;99.90;;;;;;5091890;28;20055;-56
2022/06/26 05:53:41;;;;;;;8.20;5.43;;;21.50;99.90;;;;;;5091828;28;20071;-56
2022/06/26 05:56:07;;;;;;;8.95;6.00;;;22.40;99.90;;;;;;5091756;28;20051;-56
2022/06/26 05:58:32;;;;;;;9.90;7.25;;;22.30;99.90;;;;;;5092091;28;20059;-56
2022/06/26 06:00:58;;;;;;;10.90;7.53;;;23.50;99.90;;;;;;5091287;28;20127;-56
2022/06/26 06:03:24;;;;;;;9.60;7.78;;;23.50;99.90;;;;;;5091746;28;20054;-56
2022/06/26 06:05:50;;;;;;;10.27;7.70;;;23.90;99.90;;;;;;5091421;28;20154;-56
2022/06/26 06:08:15;;;;;;;9.10;7.60;;;24.20;99.90;;;;;;5091939;28;20127;-56
2022/06/26 06:10:41;;;;;;;9.32;8.05;;;24.70;99.90;;;;;;5091232;28;20479;-56
2022/06/26 06:13:08;;;;;;;10.05;7.88;;;24.80;99.90;;;;;;5091077;28;20087;-56
2022/06/26 06:15:33;;;;;;;9.45;7.72;;;24.90;99.90;;;;;;5091709;28;20076;-56
2022/06/26 06:17:59;;;;;;;10.20;7.90;;;24.80;99.90;;;;;;5090919;28;20044;-56
2022/06/26 06:20:25;;;;;;;8.95;7.50;;;24.90;99.90;;;;;;5091573;28;20109;-56
2022/06/26 06:23:03;;;;;;;8.20;7.40;;;25.00;99.90;;;;;;5090892;28;20548;-56
2022/06/26 06:25:29;;;;;;;8.60;7.70;;;25.40;99.90;;;;;;5091526;28;20157;-56
2022/06/26 06:27:54;;;;;;;12.20;7.50;;;25.20;99.90;;;;;;5091042;28;20487;-56
2022/06/26 06:30:20;;;;;;;11.10;8.27;;;25.10;99.90;;;;;;5091066;28;20040;-56
2022/06/26 06:32:46;;;;;;;11.82;8.00;;;24.70;99.90;;;;;;5090220;28;20566;-56
2022/06/26 06:35:13;;;;;;;9.73;8.25;;;24.10;99.90;;;;;;5091254;28;20044;-56
2022/06/26 06:37:40;;;;;;;12.05;9.70;;;23.60;99.90;;;;;;5091093;28;20380;-56
2022/06/26 06:40:07;;;;;;;12.27;9.82;;;23.30;99.90;;;;;;5072827;28;20055;-56
2022/06/26 06:42:32;;;;;;;11.25;10.05;;;22.50;99.90;;;;;;5090868;28;20052;-56
2022/06/26 06:44:58;;;;;;;11.65;9.98;;;22.50;99.90;;;;;;5090659;28;20048;-56
2022/06/26 06:47:24;;;;;;;13.35;9.43;;;22.10;99.90;;;;;;5072568;28;20052;-56
2022/06/26 06:49:49;;;;;;;11.93;9.70;;;21.70;99.90;;;;;;5081670;28;20113;-56
2022/06/26 06:52:15;;;;;;;12.30;9.13;;;21.70;99.90;;;;;;5081641;28;20048;-56
2022/06/26 06:54:41;;;;;;;10.82;8.50;;;21.60;99.90;;;;;;5090929;28;20042;-56
2022/06/26 06:57:06;;;;;;;10.80;8.07;;;22.40;99.90;;;;;;5090900;28;20094;-56
2022/06/26 06:59:33;;;;;;;11.40;8.40;;;22.50;99.90;;;;;;5090810;28;20048;-56
2022/06/26 07:01:59;;;;;;;10.15;7.90;;;23.60;99.90;;;;;;5089745;28;20043;-56
2022/06/26 07:04:25;;;;;;;10.05;8.40;;;23.60;99.90;;;;;;5091143;28;20372;-56
2022/06/26 07:06:51;;;;;;;8.68;7.78;;;23.50;99.90;;;;;;5090493;28;20048;-56
2022/06/26 07:09:16;;;;;;;9.27;7.70;;;23.10;99.90;;;;;;5090911;28;20039;-56
2022/06/26 07:11:43;;;;;;;11.93;8.57;;;23.00;99.90;;;;;;5085339;28;20044;-56
2022/06/26 07:14:09;;;;;;;10.20;8.80;;;22.80;99.90;;;;;;5081085;28;20456;-56
2022/06/26 07:16:35;;;;;;;12.13;9.52;;;22.10;99.90;;;;;;5075966;28;20060;-56
2022/06/26 07:19:02;;;;;;;11.32;9.35;;;22.00;99.90;;;;;;5059141;28;20053;-56
2022/06/26 07:21:28;;;;;;;11.10;8.18;;;22.00;99.90;;;;;;5080496;28;20049;-56
2022/06/26 07:23:53;;;;;;;10.05;8.60;;;22.60;99.90;;;;;;5081360;28;20036;-56
2022/06/26 07:26:19;;;;;;;10.18;8.15;;;22.50;99.90;;;;;;5082035;28;20044;-56
2022/06/26 07:28:45;;;;;;;10.35;8.38;;;23.10;99.90;;;;;;5069627;28;20037;-56
2022/06/26 07:31:10;;;;;;;10.05;8.20;;;24.20;99.90;;;;;;5068694;28;20053;-57
2022/06/26 07:36:20;;;;;;;13.45;8.38;;;23.30;99.90;;;;;;5069408;28;20137;-57
2022/06/26 07:38:46;;;;;;;8.48;7.57;;;23.80;99.90;;;;;;5069664;28;20090;-56
2022/06/26 07:41:11;;;;;;;10.95;8.02;;;24.30;99.90;;;;;;5069612;28;20057;-56
2022/06/26 07:43:37;;;;;;;9.98;8.40;;;24.40;99.90;;;;;;5069643;28;20411;-57
2022/06/26 07:46:03;;;;;;;10.02;8.50;;;25.10;99.90;;;;;;5049889;28;20052;-56
2022/06/26 07:48:28;;;;;;;11.77;8.30;;;25.00;99.90;;;;;;5069955;28;20122;-56
2022/06/26 07:50:54;;;;;;;11.32;9.25;;;24.90;99.90;;;;;;5068749;28;20098;-56
2022/06/26 07:53:21;;;;;;;10.13;8.77;;;26.20;99.90;;;;;;5069637;28;20053;-56
2022/06/26 07:55:46;;;;;;;11.27;8.85;;;25.30;99.90;;;;;;5068844;28;20113;-57
2022/06/26 07:58:12;;;;;;;12.32;9.68;;;25.50;99.90;;;;;;5069213;28;20044;-56
2022/06/26 08:00:38;;;;;;;11.35;9.60;;;25.20;99.90;;;;;;5068992;28;20143;-56
2022/06/26 08:03:05;;;;;;;11.85;10.10;;;24.60;99.90;;;;;;5070414;28;20060;-56
2022/06/26 08:05:31;;;;;;;11.77;9.38;;;24.60;99.90;;;;;;5073503;28;20052;-56
2022/06/26 08:07:56;;;;;;;10.77;9.10;;;24.20;99.90;;;;;;5072503;28;20075;-56
2022/06/26 08:10:22;;;;;;;12.80;9.43;;;24.00;99.90;;;;;;5073268;28;20045;-57
2022/06/26 08:12:48;;;;;;;11.25;7.82;;;24.20;99.90;;;;;;5072194;28;20468;-56
2022/06/26 08:15:13;;;;;;;8.60;7.43;;;24.50;99.90;;;;;;5069789;28;20428;-57
2022/06/26 08:17:39;;;;;;;9.63;7.95;;;24.70;99.90;;;;;;5072729;28;20044;-57
2022/06/26 08:20:05;;;;;;;8.95;7.50;;;24.90;99.90;;;;;;5073087;28;20044;-56
2022/06/26 08:22:30;;;;;;;10.77;8.20;;;24.70;99.90;;;;;;5072414;28;20086;-56
2022/06/26 08:24:56;;;;;;;9.35;8.18;;;24.90;99.90;;;;;;5054350;28;20056;-57
2022/06/26 08:27:22;;;;;;;9.25;7.65;;;25.00;99.90;;;;;;5072876;28;20287;-56
2022/06/26 08:29:48;;;;;;;7.35;6.47;;;25.20;99.90;;;;;;5071657;28;20518;-57
2022/06/26 08:32:13;;;;;;;7.55;6.35;;;25.60;99.90;;;;;;5088786;28;20396;-56
2022/06/26 08:34:39;;;;;;;8.38;6.70;;;25.80;99.70;;;;;;5093069;28;20044;-56
2022/06/26 08:37:05;;;;;;;7.50;6.43;;;26.00;98.70;;;;;;5092660;28;20047;-57
2022/06/26 08:39:35;;;;;;;8.05;5.90;;;26.00;99.90;;;;;;5089555;28;20047;-56
2022/06/26 08:42:02;;;;;;;6.03;4.80;;;26.20;97.80;;;;;;5092168;28;20169;-56
2022/06/26 08:44:29;;;;;;;6.93;5.38;;;26.10;97.30;;;;;;5073975;28;20060;-56
2022/06/26 08:46:55;;;;;;;6.88;5.65;;;26.20;96.40;;;;;;5092402;28;20129;-56
2022/06/26 08:49:23;;;;;;;7.22;5.65;;;26.00;96.10;;;;;;5092838;28;20503;-56
2022/06/26 08:51:51;;;;;;;7.68;6.10;;;25.70;96.00;;;;;;5092502;28;20119;-56
2022/06/26 08:54:19;;;;;;;6.82;5.30;;;25.60;96.40;;;;;;5092793;28;20106;-56
2022/06/26 08:56:47;;;;;;;6.10;5.25;;;25.70;96.60;;;;;;5092230;28;20040;-56
2022/06/26 08:59:15;;;;;;;6.63;3.95;;;25.70;96.10;;;;;;5091766;28;20048;-56
2022/06/26 09:01:41;;;;;;;6.05;4.40;;;25.60;95.50;;;;;;5074652;28;20399;-57
2022/06/26 09:04:08;;;;;;;7.15;4.30;;;25.50;94.90;;;;;;5089016;28;20056;-57
2022/06/26 09:06:34;;;;;;;7.35;5.10;;;25.30;94.90;;;;;;5092681;28;20088;-56
2022/06/26 09:09:11;;;;;;;5.32;3.53;;;25.30;95.00;;;;;;5091695;28;20113;-56
2022/06/26 09:11:38;;;;;;;7.95;3.30;;;25.30;95.40;;;;;;5092393;28;20048;-56
2022/06/26 09:14:04;;;;;;;6.60;3.60;;;25.50;95.20;;;;;;5072158;28;20350;-57
2022/06/26 09:16:31;;;;;;;5.25;4.00;;;25.50;94.10;;;;;;5092761;28;20117;-56
2022/06/26 09:19:07;;;;;;;6.38;4.30;;;26.10;99.00;;;;;;5085775;28;20109;-56
2022/06/26 09:21:33;;;;;;;5.00;3.60;;;25.60;94.50;;;;;;5073117;28;20063;-56
2022/06/26 09:23:58;;;;;;;6.93;4.63;;;25.80;94.60;;;;;;5091467;28;20063;-56
2022/06/26 09:26:24;;;;;;;7.95;4.38;;;25.70;93.80;;;;;;5091597;28;20127;-56
2022/06/26 09:28:49;;;;;;;7.38;4.20;;;25.50;98.50;;;;;;5090964;28;20054;-56
2022/06/26 09:31:20;;;;;;;8.25;4.90;;;25.50;94.50;;;;;;5091259;28;20550;-56
2022/06/26 09:33:46;;;;;;;6.25;3.92;;;25.70;98.90;;;;;;5091655;28;20064;-56
2022/06/26 09:36:17;;;;;;;6.82;4.00;;;25.50;97.40;;;;;;5091546;28;20401;-56
2022/06/26 09:38:51;;;;;;;5.57;3.65;;;25.60;93.80;;;;;;5091822;28;20082;-56
2022/06/26 09:41:27;;;;;;;5.47;3.50;;;25.80;93.60;;;;;;5091049;28;20562;-56
2022/06/26 09:43:55;;;;;;;6.85;4.00;;;25.80;93.10;;;;;;5090557;28;20207;-56
2022/06/26 09:46:30;;;;;;;5.93;4.18;;;25.80;93.10;;;;;;5110168;28;20199;-56
2022/06/26 09:48:57;;;;;;;;;;;25.90;92.10;;;;;;5111917;28;20123;-56
2022/06/26 09:51:24;;;;;;;5.22;3.60;;;26.00;91.80;;;;;;5093353;28;19951;-56
2022/06/26 09:53:51;;;;;;;6.72;3.20;;;26.00;92.40;;;;;;5111238;28;20086;-56
2022/06/26 09:56:17;;;;;;;4.50;2.97;;;25.90;92.20;;;;;;5092796;28;20044;-56
2022/06/26 09:58:43;;;;;;;5.78;3.10;;;25.90;91.80;;;;;;5056093;28;20056;-56
2022/06/26 10:06:42;;;;;;;;;;;25.40;91.20;;;;;;5091071;28;20055;-56
2022/06/26 10:09:09;;;;;;;6.15;3.33;;;25.30;95.10;;;;;;5091314;28;19998;-56
2022/06/26 10:11:37;;;;;;;6.18;3.60;;;25.30;92.30;;;;;;5090538;28;20483;-56
2022/06/26 10:14:10;;;;;;;5.22;3.58;;;25.30;91.70;;;;;;5055557;28;20208;-56
2022/06/26 10:16:54;;;;;;;6.22;3.60;;;25.20;90.60;;;;;;5090778;28;20051;-56
2022/06/26 10:19:41;;;;;;;5.55;3.67;;;25.10;91.10;;;;;;5090862;28;20127;-56
2022/06/26 10:22:07;;;;;;;6.85;3.80;;;25.10;91.30;;;;;;5072560;28;20052;-56
2022/06/26 10:24:33;;;;;;;6.25;4.00;;;25.10;92.40;;;;;;5091053;28;20047;-56
2022/06/26 10:27:01;;;;;;;6.03;3.60;;;24.40;96.40;;;;;;5071469;28;20245;-56
2022/06/26 10:29:37;;;;;;;7.85;3.60;;;25.10;93.00;;;;;;5091013;28;20119;-56
2022/06/26 10:32:04;;;;;;;4.55;3.25;;;25.10;92.70;;;;;;5099577;28;20048;-56
2022/06/26 10:34:31;;;;;;;4.65;3.20;;;25.20;91.40;;;;;;5111455;28;20039;-56
2022/06/26 10:37:02;;;;;;;6.80;3.47;;;25.20;91.20;;;;;;5081756;28;20051;-56
2022/06/26 10:39:42;;;;;;;7.45;3.53;;;25.30;90.20;;;;;;5090877;28;20181;-56
2022/06/26 10:45:05;;;;;;;5.18;2.67;;;25.20;89.70;;;;;;5073092;28;20056;-57
2022/06/26 10:47:47;;;;;;;5.53;2.75;;;25.20;87.50;;;;;;5090847;28;20048;-56
2022/06/26 10:50:25;;;;;;;5.53;3.05;;;25.40;92.70;;;;;;5072881;28;20131;-56
2022/06/26 10:52:50;;;;;;;4.80;2.95;;;25.40;86.30;;;;;;5090655;28;20058;-56
2022/06/26 10:55:16;;;;;;;6.20;2.83;;;25.30;86.40;;;;;;5090681;28;20044;-57
2022/06/26 10:57:42;;;;;;;4.13;2.90;;;25.30;84.20;;;;;;5090278;28;20056;-57
2022/06/26 11:00:12;;;;;;;5.63;3.38;;;25.30;84.40;;;;;;5091049;28;20043;-57
2022/06/26 11:02:41;;;;;;;4.82;3.08;;;25.20;84.70;;;;;;5091044;28;20044;-57
2022/06/26 11:05:08;;;;;;;4.65;3.00;;;25.20;84.30;;;;;;5090813;28;20097;-56
2022/06/26 11:07:49;;;;;;;5.65;3.33;;;25.20;85.70;;;;;;5090449;28;20048;-57
2022/06/26 11:10:25;;;;;;;5.25;3.25;;;25.30;86.20;;;;;;5090743;28;20127;-56
2022/06/26 11:12:52;;;;;;;5.85;3.20;;;25.40;86.80;;;;;;5072557;28;20044;-56
2022/06/26 11:15:34;;;;;;;5.82;2.85;;;25.40;84.80;;;;;;5090729;28;20098;-56
2022/06/26 11:18:05;;;;;;;5.45;3.05;;;25.40;83.60;;;;;;5090238;28;20048;-56
2022/06/26 11:20:47;;;;;;;5.78;3.10;;;25.40;85.00;;;;;;5090825;28;20501;-56
2022/06/26 11:23:25;;;;;;;5.80;3.10;;;25.40;85.00;;;;;;5090766;28;20072;-56
2022/06/26 11:26:01;;;;;;;6.03;2.90;;;25.40;85.20;;;;;;5090571;28;20040;-56
2022/06/26 11:28:40;;;;;;;4.68;2.83;;;25.70;83.10;;;;;;5055719;28;20059;-56
2022/06/26 11:31:13;;;;;;;6.78;2.80;;;25.80;81.60;;;;;;5055220;28;20131;-56
2022/06/26 11:33:43;;;;;;;4.55;2.45;;;25.90;80.40;;;;;;5090156;28;20083;-56
2022/06/26 11:36:12;;;;;;;7.72;2.75;;;26.00;79.80;;;;;;5072077;28;20052;-56
2022/06/26 11:38:38;;;;;;;5.93;2.63;;;26.10;85.60;;;;;;5093487;28;20503;-56
2022/06/26 11:41:06;;;;;;;6.50;3.03;;;25.90;79.30;;;;;;5076016;28;20378;-56
2022/06/26 11:43:33;;;;;;;5.82;2.90;;;25.90;87.30;;;;;;5094454;28;20121;-56
2022/06/26 11:46:01;;;;;;;7.88;2.90;;;25.80;78.20;;;;;;5094159;28;20521;-56
2022/06/26 11:48:29;;;;;;;4.97;2.70;;;25.90;78.30;;;;;;5094715;28;20071;-56
2022/06/26 11:50:56;;;;;;;6.60;3.10;;;26.20;86.70;;;;;;5093887;28;20040;-56
2022/06/26 11:53:24;;;;;;;5.15;2.72;;;26.00;78.40;;;;;;5093870;28;20502;-56
2022/06/26 11:55:54;;;;;;;4.03;2.67;;;26.10;77.60;;;;;;5093562;28;20494;-56
2022/06/26 11:58:34;;;;;;;4.07;2.75;;;26.20;76.60;;;;;;5076450;28;20044;-56
2022/06/26 12:01:11;;;;;;;6.20;2.70;;;26.10;75.60;;;;;;5093753;28;20499;-56
2022/06/26 12:03:49;;;;;;;6.85;2.75;;;26.10;74.60;;;;;;5076207;28;20165;-56
2022/06/26 12:06:32;;;;;;;7.13;2.80;;;26.20;74.30;;;;;;5093644;28;20062;-56
2022/06/26 12:08:59;;;;;;;4.13;2.60;;;26.30;73.20;;;;;;5093428;28;20040;-56
2022/06/26 12:11:26;;;;;;;8.07;2.92;;;26.30;73.80;;;;;;5093890;28;20493;-56
2022/06/26 12:13:52;;;;;;;4.70;2.60;;;26.40;74.10;;;;;;5093925;28;20054;-57
2022/06/26 12:16:21;;;;;;;7.50;2.90;;;26.40;74.10;;;;;;5094334;28;20071;-56
2022/06/26 12:18:49;;;;;;;5.53;2.92;;;26.40;73.00;;;;;;5092915;28;20495;-57
2022/06/26 12:21:22;;;;;;;5.10;2.80;;;26.00;77.90;;;;;;5093412;28;20347;-57
2022/06/26 12:23:51;;;;;;;6.30;2.95;;;26.40;72.40;;;;;;5093536;28;20054;-57
2022/06/26 12:26:18;;;;;;;3.75;2.38;;;26.50;74.00;;;;;;5093690;28;20102;-56
2022/06/26 12:28:52;;;;;;;4.97;2.70;;;26.50;73.50;;;;;;5092804;28;20104;-57
2022/06/26 12:31:20;;;;;;;7.50;2.88;;;26.60;70.60;;;;;;5093400;28;20148;-56
2022/06/26 12:33:47;;;;;;;7.40;3.08;;;26.50;70.60;;;;;;5093529;28;20044;-56
2022/06/26 12:36:14;;;;;;;6.25;2.83;;;26.50;70.50;;;;;;5093325;28;20064;-56
2022/06/26 12:38:41;;;;;;;5.40;2.97;;;26.30;70.70;;;;;;5093156;28;20055;-56
2022/06/26 12:41:16;;;;;;;6.07;2.72;;;26.20;70.50;;;;;;5092932;28;20511;-57
2022/06/26 12:43:53;;;;;;;5.65;3.00;;;26.10;72.00;;;;;;5093063;28;20127;-57
2022/06/26 12:46:19;;;;;;;4.10;2.78;;;26.10;72.90;;;;;;5093737;28;20417;-56
2022/06/26 12:48:45;;;;;;;4.68;3.10;;;25.90;74.20;;;;;;5092810;28;20124;-57
2022/06/26 12:51:12;;;;;;;6.03;3.00;;;25.80;81.80;;;;;;5092760;28;20055;-56
2022/06/26 12:53:38;;;;;;;5.18;2.90;;;25.70;75.10;;;;;;5093016;28;20047;-56
2022/06/26 12:56:04;;;;;;;5.93;2.83;;;25.70;75.40;;;;;;5093187;28;20052;-56
2022/06/26 12:58:30;;;;;;;6.55;3.30;;;25.60;77.20;;;;;;5093422;28;20112;-56
2022/06/26 13:00:56;;;;;;;7.00;3.33;;;25.60;77.10;;;;;;5074326;28;20044;-57
2022/06/26 13:03:22;;;;;;;5.60;3.20;;;25.50;78.00;;;;;;5093104;28;20084;-56